Time;durP1;ratioP1;P1;durP2;ratioP2;P2;SDS_P1;SDS_P2;PMS_P1;PMS_P2;Temp;Humidity;BMP_temperature;BMP_pressure;BME280_temperature;BME280_humidity;BME280_pressure;Samples;Min_cycle;Max_cycle;Signal;HPM_P1;HPM_P2
2023/04/30 00:01:32;;;;;;;13.95;12.02;;;;;;;7.49;95.36;102242.44;5049761;28;20049;-82
2023/04/30 00:03:58;;;;;;;17.15;11.73;;;;;;;7.47;95.34;102241.63;5064460;28;20041;-83
2023/04/30 00:06:23;;;;;;;15.77;11.40;;;;;;;7.49;95.70;102237.19;5049310;28;20025;-82
2023/04/30 00:08:51;;;;;;;15.95;12.75;;;;;;;7.47;96.35;102244.25;5049647;28;20266;-82
2023/04/30 00:11:17;;;;;;;17.67;12.27;;;;;;;7.43;96.68;102232.19;5048137;28;20091;-82
2023/04/30 00:13:42;;;;;;;15.30;12.07;;;;;;;7.41;96.67;102241.03;5048313;28;20033;-82
2023/04/30 00:16:08;;;;;;;17.77;12.30;;;;;;;7.36;97.34;102249.06;5047965;28;20385;-82
2023/04/30 00:18:37;;;;;;;14.18;11.80;;;;;;;7.40;97.67;102247.19;5063446;28;20031;-82
2023/04/30 00:21:03;;;;;;;18.77;12.20;;;;;;;7.39;98.07;102238.47;5045923;28;20082;-81
2023/04/30 00:23:31;;;;;;;14.93;12.20;;;;;;;7.34;98.35;102237.78;5049366;28;20459;-81
2023/04/30 00:26:04;;;;;;;16.38;12.43;;;;;;;7.34;99.44;102247.41;5052108;28;20093;-81
2023/04/30 00:28:29;;;;;;;15.63;12.65;;;;;;;7.33;98.93;102243.94;5052505;28;20021;-82
2023/04/30 00:30:55;;;;;;;17.48;12.57;;;;;;;7.33;99.25;102253.56;5052613;28;20029;-81
2023/04/30 00:33:21;;;;;;;16.42;12.93;;;;;;;7.34;99.75;102242.19;5049772;28;20013;-81
2023/04/30 00:35:49;;;;;;;16.67;12.50;;;;;;;7.38;100.00;102249.84;5067691;28;20025;-81
2023/04/30 00:38:14;;;;;;;15.30;12.32;;;;;;;7.36;99.97;102249.06;5050377;28;20078;-81
2023/04/30 00:40:44;;;;;;;17.30;13.65;;;;;;;7.37;100.00;102245.53;5051535;28;20029;-81
2023/04/30 00:43:10;;;;;;;18.42;14.70;;;;;;;7.37;100.00;102242.91;5066660;28;20217;-83
2023/04/30 00:45:35;;;;;;;20.90;16.92;;;;;;;7.33;100.00;102246.56;5051885;28;20048;-81
2023/04/30 00:48:04;;;;;;;21.67;18.10;;;;;;;7.30;100.00;102246.69;5049906;28;20036;-81
2023/04/30 00:50:30;;;;;;;20.38;16.92;;;;;;;7.27;100.00;102244.19;5050737;28;20021;-83
2023/04/30 00:53:01;;;;;;;21.25;17.52;;;;;;;7.29;100.00;102250.22;5052243;28;20025;-83
2023/04/30 00:55:26;;;;;;;20.23;17.58;;;;;;;7.24;100.00;102249.53;5049783;28;20657;-83
2023/04/30 00:58:05;;;;;;;22.88;17.80;;;;;;;7.22;100.00;102253.97;5068372;28;20031;-83
2023/04/30 01:00:45;;;;;;;19.20;17.00;;;;;;;7.19;100.00;102254.06;5050518;28;20035;-83
2023/04/30 01:03:12;;;;;;;20.15;16.77;;;;;;;7.20;100.00;102245.28;5050873;28;20481;-83
2023/04/30 01:05:41;;;;;;;19.83;16.33;;;;;;;7.17;100.00;102245.41;5052503;28;20025;-84
2023/04/30 01:08:07;;;;;;;18.23;16.08;;;;;;;7.16;100.00;102243.69;5040603;28;20555;-81
2023/04/30 01:10:44;;;;;;;17.10;14.88;;;;;;;7.17;100.00;102246.25;5032461;28;20032;-81
2023/04/30 01:13:30;;;;;;;20.52;15.00;;;;;;;7.18;100.00;102239.25;5047249;28;20108;-82
2023/04/30 01:16:19;;;;;;;16.55;14.55;;;;;;;7.20;100.00;102237.44;5037098;28;20107;-82
2023/04/30 01:19:28;;;;;;;20.35;14.48;;;;;;;7.17;100.00;102237.56;5052674;28;20025;-82
2023/04/30 01:22:00;;;;;;;16.27;14.48;;;;;;;7.11;100.00;102243.03;5031999;28;20514;-82
2023/04/30 01:25:06;;;;;;;18.58;14.10;;;;;;;7.14;100.00;102240.28;5049386;28;20037;-82
2023/04/30 01:27:51;;;;;;;20.35;14.45;;;;;;;7.04;100.00;102233.69;5051478;28;20175;-82
2023/04/30 01:30:18;;;;;;;16.98;14.57;;;;;;;7.02;100.00;102238.13;5028272;28;20040;-82
2023/04/30 01:32:46;;;;;;;15.82;13.55;;;;;;;7.00;100.00;102242.56;5051270;28;20427;-82
2023/04/30 01:35:22;;;;;;;17.77;14.35;;;;;;;6.95;100.00;102244.50;5049970;28;20028;-82
2023/04/30 01:38:09;;;;;;;17.10;14.98;;;;;;;6.93;100.00;102243.72;5051275;28;20032;-82
2023/04/30 01:40:51;;;;;;;17.90;15.25;;;;;;;6.90;100.00;102242.06;5051108;28;20392;-82
2023/04/30 01:43:38;;;;;;;19.30;15.18;;;;;;;6.86;100.00;102246.56;5048176;28;20403;-82
2023/04/30 01:46:26;;;;;;;19.50;15.85;;;;;;;6.88;100.00;102236.03;5049323;28;20063;-82
2023/04/30 01:49:19;;;;;;;17.00;14.27;;;;;;;6.84;100.00;102242.28;5066247;28;20460;-82
2023/04/30 01:51:54;;;;;;;20.20;15.35;;;;;;;6.77;100.00;102239.00;5050274;28;20025;-82
2023/04/30 01:54:49;;;;;;;21.00;16.23;;;;;;;6.79;100.00;102245.03;5050105;28;20029;-82
2023/04/30 01:57:51;;;;;;;17.95;15.80;;;;;;;6.77;100.00;102243.38;5049607;28;20397;-82
2023/04/30 02:00:22;;;;;;;16.90;14.93;;;;;;;6.77;100.00;102246.00;5043013;28;20051;-82
2023/04/30 02:02:50;;;;;;;22.45;14.82;;;;;;;6.71;100.00;102252.31;5049389;28;20029;-82
2023/04/30 02:05:16;;;;;;;18.40;15.48;;;;;;;6.71;100.00;102252.31;5047932;28;20540;-82
2023/04/30 02:07:47;;;;;;;20.63;15.52;;;;;;;6.65;100.00;102247.31;5045970;28;20064;-82
2023/04/30 02:10:20;;;;;;;17.97;15.50;;;;;;;6.62;100.00;102251.78;5030969;28;20022;-82
2023/04/30 02:12:56;;;;;;;;;;;;;;;;;;;;;
2023/04/30 02:15:22;;;;;;;19.10;15.80;;;;;;;6.59;100.00;102244.91;5032248;28;20043;-82
2023/04/30 02:17:50;;;;;;;17.15;15.38;;;;;;;6.56;100.00;102258.09;5050567;28;20104;-82
2023/04/30 02:20:18;;;;;;;19.08;15.48;;;;;;;6.56;100.00;102255.47;5050778;28;20029;-82
2023/04/30 02:22:47;;;;;;;18.65;15.40;;;;;;;6.49;100.00;102251.38;5051351;28;20025;-82
2023/04/30 02:25:13;;;;;;;18.92;16.30;;;;;;;6.44;100.00;102248.06;5049991;28;20109;-82
2023/04/30 02:27:41;;;;;;;17.30;15.48;;;;;;;6.46;100.00;102256.72;5067168;28;20552;-82
2023/04/30 02:30:09;;;;;;;20.08;16.63;;;;;;;6.42;100.00;102260.34;5067210;28;20025;-82
2023/04/30 02:32:34;;;;;;;19.00;16.60;;;;;;;6.42;100.00;102257.72;5050248;28;20103;-82
2023/04/30 02:35:10;;;;;;;18.73;16.73;;;;;;;6.37;100.00;102254.38;5049056;28;20112;-82
2023/04/30 02:37:35;;;;;;;23.50;17.98;;;;;;;6.33;100.00;102256.25;5050070;28;20024;-82
2023/04/30 02:40:05;;;;;;;23.48;17.15;;;;;;;6.33;100.00;102255.38;5049399;28;20111;-82
2023/04/30 02:42:30;;;;;;;20.08;17.02;;;;;;;6.29;100.00;102247.66;5064369;28;20076;-81
2023/04/30 02:44:56;;;;;;;19.75;17.10;;;;;;;6.34;100.00;102251.88;5065169;28;20077;-82
2023/04/30 02:47:21;;;;;;;18.42;16.33;;;;;;;6.32;100.00;102245.84;5047684;28;20095;-81
2023/04/30 02:49:47;;;;;;;19.25;16.85;;;;;;;6.28;100.00;102245.94;5049687;28;20021;-81
2023/04/30 02:52:12;;;;;;;19.45;17.42;;;;;;;6.29;100.00;102245.03;5046823;28;20058;-81
2023/04/30 02:54:38;;;;;;;20.88;17.52;;;;;;;6.29;100.00;102247.66;5048857;28;20028;-81
2023/04/30 02:57:04;;;;;;;21.65;17.63;;;;;;;6.30;100.00;102248.50;5049299;28;20740;-81
2023/04/30 02:59:29;;;;;;;19.75;16.75;;;;;;;6.31;100.00;102246.75;5049556;28;20044;-81
2023/04/30 03:01:55;;;;;;;19.83;17.17;;;;;;;6.30;100.00;102251.13;5046783;28;20041;-82
2023/04/30 03:04:26;;;;;;;19.98;17.45;;;;;;;6.27;100.00;102252.06;5048727;28;20036;-82
2023/04/30 03:06:55;;;;;;;21.15;17.50;;;;;;;6.25;100.00;102243.44;5047500;28;20029;-82
2023/04/30 03:09:23;;;;;;;22.25;18.30;;;;;;;6.19;100.00;102238.41;5064022;28;20114;-82
2023/04/30 03:11:48;;;;;;;19.40;17.30;;;;;;;6.20;100.00;102236.66;5049345;28;20052;-82
2023/04/30 03:14:13;;;;;;;25.20;18.23;;;;;;;6.18;100.00;102231.47;5063509;28;20060;-81
2023/04/30 03:16:43;;;;;;;19.85;17.67;;;;;;;6.20;100.00;102242.75;5050006;28;20056;-82
2023/04/30 03:19:08;;;;;;;22.30;17.92;;;;;;;6.17;100.00;102237.63;5049724;28;20029;-81
2023/04/30 03:21:34;;;;;;;20.02;17.40;;;;;;;6.17;100.00;102240.22;5047878;28;20112;-81
2023/04/30 03:24:03;;;;;;;20.35;17.20;;;;;;;6.13;100.00;102237.78;5048271;28;20485;-82
2023/04/30 03:26:28;;;;;;;22.60;18.42;;;;;;;6.09;100.00;102239.63;5050033;28;20032;-81
2023/04/30 03:28:56;;;;;;;21.92;18.13;;;;;;;6.07;100.00;102233.59;5047899;28;20016;-81
2023/04/30 03:31:22;;;;;;;20.25;18.05;;;;;;;6.04;100.00;102233.72;5048231;28;20029;-81
2023/04/30 03:33:47;;;;;;;19.52;17.52;;;;;;;6.01;100.00;102231.19;5050115;28;20538;-81
2023/04/30 03:36:13;;;;;;;21.92;18.20;;;;;;;5.98;100.00;102228.66;5048675;28;20075;-81
2023/04/30 03:38:40;;;;;;;20.25;18.00;;;;;;;5.95;100.00;102229.63;5049932;28;20433;-81
2023/04/30 03:41:06;;;;;;;21.90;18.27;;;;;;;5.92;100.00;102234.09;5048235;28;20021;-81
2023/04/30 03:43:55;;;;;;;23.17;19.10;;;;;;;5.88;100.00;102229.84;5049078;28;20021;-82
2023/04/30 03:46:20;;;;;;;21.88;18.45;;;;;;;5.83;100.00;102229.13;5047557;28;20044;-82
2023/04/30 03:48:46;;;;;;;23.02;18.85;;;;;;;5.79;100.00;102236.22;5049163;28;20029;-82
2023/04/30 03:51:26;;;;;;;27.85;20.65;;;;;;;5.74;100.00;102230.28;5048102;28;20029;-82
2023/04/30 03:53:54;;;;;;;24.33;19.90;;;;;;;5.71;100.00;102246.06;5047963;28;20175;-82
2023/04/30 03:56:20;;;;;;;25.88;20.90;;;;;;;5.68;100.00;102243.53;5047767;28;20540;-82
2023/04/30 03:58:48;;;;;;;24.67;20.33;;;;;;;5.70;100.00;102249.56;5050184;28;20032;-82
2023/04/30 04:01:17;;;;;;;23.83;20.33;;;;;;;5.65;100.00;102247.09;5052361;28;20068;-81
2023/04/30 04:03:53;;;;;;;23.13;18.85;;;;;;;5.66;100.00;102253.19;5052138;28;20760;-82
2023/04/30 04:06:19;;;;;;;23.88;20.15;;;;;;;5.65;100.00;102252.31;5052280;28;20048;-81
2023/04/30 04:08:45;;;;;;;22.83;20.42;;;;;;;5.65;100.00;102251.47;5036666;28;20022;-81
2023/04/30 04:11:11;;;;;;;23.33;20.83;;;;;;;5.65;100.00;102257.53;5031933;28;20111;-81
2023/04/30 04:13:37;;;;;;;23.05;20.55;;;;;;;5.67;100.00;102260.09;5033071;28;20436;-82
2023/04/30 04:16:03;;;;;;;27.10;21.05;;;;;;;5.69;100.00;102262.66;5039529;28;20579;-82
2023/04/30 04:18:30;;;;;;;27.90;20.92;;;;;;;5.68;100.00;102255.75;5052230;28;20104;-81
2023/04/30 04:21:00;;;;;;;24.65;21.25;;;;;;;5.68;100.00;102256.59;5052784;28;20017;-81
2023/04/30 04:23:28;;;;;;;23.55;20.45;;;;;;;5.66;100.00;102259.25;5052676;28;20033;-82
2023/04/30 04:25:54;;;;;;;29.50;21.38;;;;;;;5.69;100.00;102263.53;5052030;28;20495;-81
2023/04/30 04:28:20;;;;;;;27.38;20.75;;;;;;;5.70;100.00;102264.38;5052008;28;20099;-82
2023/04/30 04:30:48;;;;;;;27.10;21.75;;;;;;;5.72;100.00;102259.97;5052385;28;20025;-82
2023/04/30 04:33:14;;;;;;;26.40;21.75;;;;;;;5.72;100.00;102260.81;5051936;28;20028;-82
2023/04/30 04:35:42;;;;;;;25.58;21.92;;;;;;;5.77;100.00;102271.97;5052028;28;20017;-82
2023/04/30 04:38:08;;;;;;;29.58;22.60;;;;;;;5.92;100.00;102258.44;5051459;28;20024;-82
2023/04/30 04:40:37;;;;;;;23.67;21.10;;;;;;;6.02;100.00;102255.56;5051240;28;20500;-82
2023/04/30 04:43:06;;;;;;;22.70;20.38;;;;;;;6.03;100.00;102260.75;5051628;28;20016;-81
2023/04/30 04:45:40;;;;;;;23.70;20.70;;;;;;;6.23;100.00;102263.53;5067528;28;20049;-82
2023/04/30 04:48:05;;;;;;;20.83;18.67;;;;;;;6.40;100.00;102272.56;5052653;28;20359;-82
2023/04/30 04:50:31;;;;;;;22.83;19.75;;;;;;;6.40;100.00;102273.44;5053082;28;20031;-82
2023/04/30 04:52:57;;;;;;;22.88;19.45;;;;;;;6.35;100.00;102274.50;5052568;28;20075;-82
2023/04/30 04:55:25;;;;;;;24.20;19.98;;;;;;;6.29;100.00;102281.63;5052407;28;20029;-82
2023/04/30 04:57:51;;;;;;;22.45;19.35;;;;;;;6.45;100.00;102270.69;5053167;28;20087;-82
2023/04/30 05:00:17;;;;;;;22.60;19.73;;;;;;;6.47;100.00;102274.94;5051654;28;20440;-82
2023/04/30 05:02:43;;;;;;;21.55;19.25;;;;;;;6.45;100.00;102270.69;5052642;28;20025;-81
2023/04/30 05:05:11;;;;;;;21.77;19.27;;;;;;;6.45;100.00;102275.91;5052129;28;20024;-81
2023/04/30 05:07:39;;;;;;;20.73;18.52;;;;;;;6.37;100.00;102265.69;5059808;28;20026;-81
2023/04/30 05:10:11;;;;;;;22.55;19.92;;;;;;;6.39;100.00;102271.72;5030411;28;20100;-81
2023/04/30 05:12:37;;;;;;;22.27;19.88;;;;;;;6.38;100.00;102274.38;5046927;28;20441;-82
2023/04/30 05:15:10;;;;;;;22.92;20.35;;;;;;;6.37;100.00;102275.28;5029581;28;20017;-82
2023/04/30 05:17:35;;;;;;;24.23;20.92;;;;;;;6.39;100.00;102266.47;5051525;28;20393;-81
2023/04/30 05:20:06;;;;;;;23.42;21.00;;;;;;;6.38;100.00;102269.16;5051400;28;20021;-81
2023/04/30 05:22:54;;;;;;;23.65;21.23;;;;;;;6.40;100.00;102273.44;5050910;28;20542;-82
2023/04/30 05:25:19;;;;;;;23.67;21.17;;;;;;;6.42;100.00;102265.56;5051244;28;20988;-82
2023/04/30 05:27:46;;;;;;;23.25;20.80;;;;;;;6.45;100.00;102270.69;5050775;28;20048;-82
2023/04/30 05:30:11;;;;;;;24.92;21.58;;;;;;;6.46;100.00;102268.00;5049730;28;20112;-82
2023/04/30 05:32:36;;;;;;;26.33;21.50;;;;;;;6.56;100.00;102271.16;5051421;28;20120;-82
2023/04/30 05:35:05;;;;;;;24.80;21.33;;;;;;;6.60;100.00;102270.16;5050319;28;20389;-82
2023/04/30 05:37:34;;;;;;;23.58;21.17;;;;;;;6.68;100.00;102273.34;5066641;28;20027;-83
2023/04/30 05:40:00;;;;;;;23.70;21.27;;;;;;;6.78;100.00;102273.88;5051239;28;20028;-82
2023/04/30 05:42:46;;;;;;;25.10;20.05;;;;;;;6.82;100.00;102280.72;5065993;28;20037;-82
2023/04/30 05:45:14;;;;;;;23.35;20.90;;;;;;;6.90;100.00;102279.53;5051084;28;20079;-82
2023/04/30 05:47:43;;;;;;;22.27;19.98;;;;;;;7.01;100.00;102279.16;5051406;28;20029;-82
2023/04/30 05:50:09;;;;;;;21.88;19.65;;;;;;;7.11;100.00;102274.44;5050650;28;20103;-82
2023/04/30 05:52:43;;;;;;;20.42;18.25;;;;;;;7.19;100.00;102281.09;5052054;28;20029;-82
2023/04/30 05:55:32;;;;;;;19.48;17.35;;;;;;;7.28;100.00;102279.06;5050039;28;20496;-82
2023/04/30 05:57:57;;;;;;;21.63;17.60;;;;;;;7.40;100.00;102279.44;5051285;28;20051;-82
2023/04/30 06:00:32;;;;;;;18.27;16.00;;;;;;;7.49;100.00;102278.25;5049766;28;20021;-82
2023/04/30 06:02:57;;;;;;;18.30;15.75;;;;;;;7.55;100.00;102271.00;5066098;28;20907;-82
2023/04/30 06:05:31;;;;;;;17.70;15.80;;;;;;;7.68;100.00;102267.94;5050961;28;20029;-83
2023/04/30 06:07:57;;;;;;;17.40;15.60;;;;;;;7.79;100.00;102270.97;5051466;28;20043;-82
2023/04/30 06:10:23;;;;;;;16.52;14.75;;;;;;;7.85;100.00;102270.72;5050332;28;20024;-82
2023/04/30 06:12:48;;;;;;;16.73;15.02;;;;;;;7.94;100.00;102275.59;5051563;28;20071;-82
2023/04/30 06:15:21;;;;;;;15.55;14.05;;;;;;;8.04;100.00;102269.09;5050758;28;20033;-83
2023/04/30 06:17:54;;;;;;;15.38;13.77;;;;;;;8.16;100.00;102265.97;5049454;28;20028;-83
2023/04/30 06:20:20;;;;;;;15.02;13.48;;;;;;;8.28;100.00;102264.59;5049110;28;20090;-82
2023/04/30 06:22:46;;;;;;;15.35;13.75;;;;;;;8.34;100.00;102268.75;5050294;28;20017;-82
2023/04/30 06:25:16;;;;;;;16.08;14.38;;;;;;;8.45;100.00;102266.56;5049307;28;20466;-82
2023/04/30 06:27:44;;;;;;;17.65;14.23;;;;;;;8.52;100.00;102262.75;5050313;28;20051;-82
2023/04/30 06:30:12;;;;;;;14.57;13.10;;;;;;;8.63;100.00;102260.50;5049884;28;20033;-82
2023/04/30 06:32:38;;;;;;;15.57;13.32;;;;;;;8.69;100.00;102265.47;5049824;28;20048;-82
2023/04/30 06:35:04;;;;;;;14.52;13.05;;;;;;;8.85;100.00;102264.84;5049729;28;20025;-82
2023/04/30 06:37:34;;;;;;;15.90;13.18;;;;;;;8.96;98.80;102273.09;5048639;28;20025;-82
2023/04/30 06:40:06;;;;;;;15.50;13.48;;;;;;;9.08;97.64;102264.66;5049274;28;20024;-82
2023/04/30 06:42:33;;;;;;;14.38;12.88;;;;;;;9.19;97.50;102265.00;5065580;28;20116;-82
2023/04/30 06:45:05;;;;;;;14.98;13.02;;;;;;;9.36;96.79;102267.75;5048205;28;20465;-82
2023/04/30 06:47:36;;;;;;;16.77;12.23;;;;;;;9.45;95.75;102261.19;5048586;28;20063;-82
2023/04/30 06:50:12;;;;;;;14.23;12.63;;;;;;;9.56;94.34;102268.56;5048493;28;20040;-82
2023/04/30 06:52:38;;;;;;;14.82;12.20;;;;;;;9.78;94.31;102263.16;5049213;28;20053;-82
2023/04/30 06:55:04;;;;;;;15.20;12.80;;;;;;;9.88;93.09;102270.53;5049379;28;20052;-83
2023/04/30 06:57:30;;;;;;;15.52;12.05;;;;;;;10.01;92.25;102266.41;5049851;28;20023;-82
2023/04/30 06:59:57;;;;;;;13.82;11.88;;;;;;;10.23;91.23;102266.22;5064764;28;20500;-83
2023/04/30 07:02:23;;;;;;;13.50;12.10;;;;;;;10.43;90.24;102270.50;5049873;28;20086;-82
2023/04/30 07:04:48;;;;;;;14.73;13.05;;;;;;;10.62;89.04;102273.88;5050648;28;20029;-83
2023/04/30 07:07:14;;;;;;;16.80;12.82;;;;;;;10.77;86.78;102276.63;5049179;28;20021;-82
2023/04/30 07:09:40;;;;;;;14.95;12.55;;;;;;;10.93;86.23;102274.94;5065325;28;20043;-83
2023/04/30 07:12:06;;;;;;;14.45;11.70;;;;;;;11.14;85.49;102268.50;5048648;28;20029;-82
2023/04/30 07:14:31;;;;;;;13.77;12.30;;;;;;;11.34;85.30;102279.78;5049786;28;20083;-82
2023/04/30 07:16:57;;;;;;;13.15;11.77;;;;;;;11.38;82.91;102279.53;5050488;28;20469;-82
2023/04/30 07:19:25;;;;;;;12.98;11.68;;;;;;;11.53;83.47;102272.56;5064167;28;20048;-82
2023/04/30 07:21:51;;;;;;;13.85;11.50;;;;;;;11.71;82.73;102276.81;5049814;28;20023;-82
2023/04/30 07:24:17;;;;;;;14.55;13.05;;;;;;;11.80;81.77;102275.47;5048603;28;20029;-82
2023/04/30 07:26:43;;;;;;;13.27;11.50;;;;;;;11.87;80.98;102269.78;5050167;28;20067;-82
2023/04/30 07:29:09;;;;;;;13.32;11.32;;;;;;;11.98;79.79;102265.66;5048680;28;20021;-82
2023/04/30 07:31:34;;;;;;;13.98;11.20;;;;;;;12.31;79.19;102261.06;5064919;28;20017;-82
2023/04/30 07:34:06;;;;;;;13.32;11.50;;;;;;;12.57;78.70;102262.19;5048626;28;20052;-82
2023/04/30 07:36:32;;;;;;;16.23;10.82;;;;;;;12.82;78.10;102262.44;5047716;28;20066;-82
2023/04/30 07:38:57;;;;;;;12.70;11.13;;;;;;;13.07;76.15;102259.13;5049382;28;20057;-82
2023/04/30 07:41:26;;;;;;;11.95;10.68;;;;;;;13.23;74.28;102258.22;5028807;28;20033;-82
2023/04/30 07:43:52;;;;;;;12.82;10.50;;;;;;;13.24;74.36;102258.13;5029230;28;20078;-83
2023/04/30 07:46:21;;;;;;;15.93;10.85;;;;;;;13.56;74.16;102253.41;5028720;28;20057;-83
2023/04/30 07:48:46;;;;;;;12.07;9.98;;;;;;;14.03;72.67;102252.16;5028443;28;20028;-83
2023/04/30 07:51:14;;;;;;;11.63;10.43;;;;;;;14.20;71.96;102251.88;5028797;28;20029;-83
2023/04/30 07:53:39;;;;;;;10.73;9.63;;;;;;;14.39;70.56;102254.13;5029321;28;20018;-83
2023/04/30 07:56:07;;;;;;;14.02;10.10;;;;;;;14.10;68.46;102253.44;5027909;28;20483;-83
2023/04/30 07:58:33;;;;;;;13.38;10.30;;;;;;;14.36;69.97;102255.16;5027801;28;20044;-83
2023/04/30 08:00:58;;;;;;;12.60;10.40;;;;;;;14.30;70.49;102246.78;5028130;28;20032;-83
2023/04/30 08:03:25;;;;;;;10.73;9.55;;;;;;;14.51;68.74;102252.50;5026423;28;20033;-83
2023/04/30 08:05:54;;;;;;;11.20;9.57;;;;;;;14.68;67.73;102254.81;5029145;28;20022;-83
2023/04/30 08:08:19;;;;;;;11.10;10.00;;;;;;;14.83;66.50;102252.94;5040790;28;20316;-83
2023/04/30 08:10:45;;;;;;;11.30;9.52;;;;;;;15.15;67.09;102253.31;5048285;28;20567;-83
2023/04/30 08:13:10;;;;;;;11.93;9.63;;;;;;;15.23;64.92;102251.84;5048207;28;20466;-83
2023/04/30 08:15:37;;;;;;;10.18;8.77;;;;;;;15.40;63.72;102253.25;5048780;28;20056;-83
2023/04/30 08:18:10;;;;;;;11.82;9.02;;;;;;;15.53;63.49;102248.75;5046558;28;20024;-83
2023/04/30 08:20:36;;;;;;;9.07;8.10;;;;;;;15.72;62.06;102247.47;5048899;28;20061;-83
2023/04/30 08:23:01;;;;;;;10.90;7.80;;;;;;;15.95;60.95;102251.91;5047198;28;20147;-84
2023/04/30 08:25:27;;;;;;;8.90;8.07;;;;;;;16.09;60.58;102251.75;5048247;28;20393;-84
2023/04/30 08:27:53;;;;;;;9.68;8.63;;;;;;;16.39;60.08;102248.56;5049393;28;20036;-84
2023/04/30 08:30:19;;;;;;;9.88;8.40;;;;;;;16.44;58.27;102250.91;5064347;28;20025;-84
2023/04/30 08:32:45;;;;;;;9.45;8.43;;;;;;;16.60;59.09;102251.41;5049041;28;20036;-83
2023/04/30 08:35:10;;;;;;;10.82;8.27;;;;;;;16.68;60.05;102248.19;5049164;28;20027;-84
2023/04/30 08:37:35;;;;;;;10.85;8.38;;;;;;;16.78;58.76;102242.03;5048730;28;20407;-83
2023/04/30 08:40:02;;;;;;;10.27;9.23;;;;;;;16.76;60.99;102251.09;5049274;28;20374;-83
2023/04/30 08:42:35;;;;;;;10.35;9.05;;;;;;;16.82;60.43;102246.16;5047242;28;20116;-84
2023/04/30 08:45:08;;;;;;;9.68;8.68;;;;;;;17.17;59.58;102242.53;5048717;28;20543;-84
2023/04/30 08:47:39;;;;;;;12.40;8.82;;;;;;;17.20;59.01;102242.28;5068501;28;20099;-84
2023/04/30 08:50:08;;;;;;;9.60;8.70;;;;;;;17.12;58.68;102242.03;5068113;28;20031;-84
2023/04/30 08:52:35;;;;;;;12.43;9.00;;;;;;;17.25;59.58;102239.28;5067012;28;20044;-84
2023/04/30 08:55:05;;;;;;;10.73;8.90;;;;;;;17.37;58.69;102231.16;5052737;28;20036;-84
2023/04/30 08:57:31;;;;;;;10.23;8.50;;;;;;;17.52;59.23;102229.91;5052470;28;20060;-83
2023/04/30 09:00:00;;;;;;;10.32;8.77;;;;;;;17.33;56.90;102240.34;5051627;28;20481;-84
2023/04/30 09:02:28;;;;;;;10.15;8.23;;;;;;;17.46;56.86;102240.19;5051853;28;20470;-84
2023/04/30 09:04:57;;;;;;;12.85;9.00;;;;;;;17.38;57.36;102232.00;5067437;28;20071;-84
2023/04/30 09:07:24;;;;;;;10.60;8.50;;;;;;;17.74;56.87;102230.84;5046157;28;20029;-84
2023/04/30 09:09:52;;;;;;;8.30;7.50;;;;;;;17.98;56.23;102228.81;5046438;28;20045;-84
2023/04/30 09:12:18;;;;;;;9.90;7.30;;;;;;;18.16;54.66;102235.28;5031244;28;20022;-84
2023/04/30 09:15:09;;;;;;;8.40;7.60;;;;;;;18.20;56.74;102229.69;5031353;28;20029;-84
2023/04/30 09:17:35;;;;;;;9.00;7.68;;;;;;;18.09;54.62;102228.78;5050117;28;20017;-85
2023/04/30 09:20:11;;;;;;;8.52;7.35;;;;;;;18.04;56.34;102224.81;5066175;28;20017;-85
2023/04/30 09:22:43;;;;;;;9.75;7.43;;;;;;;18.17;55.33;102231.63;5067167;28;20451;-85
2023/04/30 09:25:10;;;;;;;8.60;7.65;;;;;;;18.10;55.92;102225.13;5051149;28;20100;-85
2023/04/30 09:27:35;;;;;;;9.45;7.50;;;;;;;18.05;54.76;102226.50;5050836;28;20029;-85
2023/04/30 09:30:01;;;;;;;9.30;8.40;;;;;;;18.08;55.24;102232.41;5051125;28;20496;-85
2023/04/30 09:32:34;;;;;;;9.35;7.82;;;;;;;17.90;54.13;102228.59;5067270;28;20120;-83
2023/04/30 09:35:03;;;;;;;9.77;7.45;;;;;;;17.85;53.07;102236.13;5051928;28;20438;-85
2023/04/30 09:37:36;;;;;;;10.13;8.07;;;;;;;18.00;55.10;102229.53;5052515;28;20024;-85
2023/04/30 09:40:11;;;;;;;10.20;9.20;;;;;;;17.81;54.54;102230.22;5051934;28;20051;-85
2023/04/30 09:42:39;;;;;;;10.15;9.07;;;;;;;17.80;56.43;102225.84;5066661;28;20040;-85
2023/04/30 09:45:06;;;;;;;9.73;8.73;;;;;;;18.12;55.91;102222.34;5050015;28;20041;-85
2023/04/30 09:47:35;;;;;;;9.00;8.18;;;;;;;18.36;55.56;102228.25;5051990;28;20033;-85
2023/04/30 09:50:00;;;;;;;10.98;6.75;;;;;;;18.87;52.33;102223.94;5049875;28;20025;-83
2023/04/30 09:52:28;;;;;;;7.25;6.55;;;;;;;19.27;51.05;102223.97;5052138;28;20028;-84
2023/04/30 09:54:57;;;;;;;7.07;6.18;;;;;;;20.11;47.88;102214.50;5051389;28;20025;-84
2023/04/30 09:57:26;;;;;;;7.82;6.78;;;;;;;20.60;47.00;102215.28;5050911;28;20037;-84
2023/04/30 10:00:13;;;;;;;7.45;5.80;;;;;;;21.16;44.42;102208.97;5050095;28;20075;-84
2023/04/30 10:02:42;;;;;;;9.93;6.70;;;;;;;21.61;43.85;102206.31;5050129;28;20473;-83
2023/04/30 10:05:13;;;;;;;7.70;6.78;;;;;;;21.73;43.89;102213.16;5050379;28;20104;-84
2023/04/30 10:07:43;;;;;;;6.43;5.83;;;;;;;21.80;43.02;102208.88;5059296;28;20026;-83
2023/04/30 10:10:12;;;;;;;8.18;6.85;;;;;;;21.95;42.92;102198.44;5029313;28;20122;-84
2023/04/30 10:12:49;;;;;;;6.93;6.25;;;;;;;22.18;43.51;102196.16;5029574;28;20025;-84
2023/04/30 10:15:27;;;;;;;8.57;5.68;;;;;;;22.12;42.47;102197.63;5030956;28;20069;-84
2023/04/30 10:18:04;;;;;;;6.68;5.28;;;;;;;22.39;42.74;102207.34;5048769;28;20492;-83
2023/04/30 10:20:33;;;;;;;5.43;4.93;;;;;;;22.62;40.42;102193.41;5048843;28;20040;-83
2023/04/30 10:23:04;;;;;;;6.88;5.88;;;;;;;22.93;41.17;102191.94;5050143;28;20036;-83
2023/04/30 10:25:32;;;;;;;6.30;5.70;;;;;;;23.10;39.98;102196.34;5050820;28;20099;-83
2023/04/30 10:27:58;;;;;;;7.35;5.82;;;;;;;23.63;38.23;102187.13;5050911;28;20106;-83
2023/04/30 10:30:30;;;;;;;8.40;5.80;;;;;;;24.01;38.37;102182.06;5049311;28;20049;-83
2023/04/30 10:33:30;;;;;;;7.22;6.53;;;;;;;24.99;37.76;102180.88;5050520;28;20028;-84
2023/04/30 10:36:16;;;;;;;6.53;5.93;;;;;;;24.10;38.89;102169.47;5050445;28;20032;-83
2023/04/30 10:38:51;;;;;;;6.55;5.95;;;;;;;23.41;38.98;102169.75;5050431;28;20032;-83
2023/04/30 10:41:19;;;;;;;6.82;6.22;;;;;;;22.55;38.95;102170.91;5048716;28;20036;-83
2023/04/30 10:43:49;;;;;;;7.53;6.75;;;;;;;21.83;41.10;102168.38;5031077;28;20536;-83
2023/04/30 10:46:27;;;;;;;7.75;6.95;;;;;;;21.47;44.19;102174.72;5029512;28;20049;-83
2023/04/30 10:49:01;;;;;;;7.55;6.75;;;;;;;20.80;44.76;102171.41;5029602;28;20037;-83
2023/04/30 10:51:59;;;;;;;7.55;6.78;;;;;;;19.99;46.25;102171.03;5029098;28;20033;-83
2023/04/30 10:54:33;;;;;;;7.07;6.47;;;;;;;19.53;47.21;102157.56;5029092;28;20041;-83
2023/04/30 10:57:11;;;;;;;7.18;6.50;;;;;;;19.34;48.11;102158.38;5031296;28;20025;-83
2023/04/30 10:59:39;;;;;;;7.10;6.40;;;;;;;18.88;48.10;102150.97;5030289;28;20400;-83
2023/04/30 11:02:09;;;;;;;7.60;6.80;;;;;;;18.71;50.86;102150.59;5030224;28;20488;-83
2023/04/30 11:05:06;;;;;;;8.05;6.82;;;;;;;18.34;49.96;102146.75;5029564;28;20544;-83
2023/04/30 11:07:35;;;;;;;8.50;6.43;;;;;;;18.17;50.19;102149.06;5029854;28;20036;-82
2023/04/30 11:10:05;;;;;;;5.90;5.40;;;;;;;18.41;48.94;102154.09;5029385;28;20029;-83
2023/04/30 11:12:33;;;;;;;6.00;4.78;;;;;;;18.52;47.79;102145.16;5027527;28;20474;-83
2023/04/30 11:15:16;;;;;;;5.30;4.70;;;;;;;18.51;47.26;102140.81;5030087;28;20382;-82
2023/04/30 11:17:47;;;;;;;5.35;4.63;;;;;;;18.76;47.71;102137.72;5029816;28;20022;-82
2023/04/30 11:20:29;;;;;;;5.32;4.85;;;;;;;18.90;46.82;102133.00;5028178;28;20481;-82
2023/04/30 11:23:22;;;;;;;5.47;4.97;;;;;;;18.94;48.04;102123.75;5044747;28;20025;-83
2023/04/30 11:25:53;;;;;;;5.60;4.93;;;;;;;18.71;46.54;102118.59;5029567;28;20469;-83
2023/04/30 11:28:23;;;;;;;6.57;5.47;;;;;;;18.54;47.21;102118.38;5028245;28;20029;-82